Time;durP1;ratioP1;P1;durP2;ratioP2;P2;SDS_P1;SDS_P2;PMS_P1;PMS_P2;Temp;Humidity;BMP_temperature;BMP_pressure;BME280_temperature;BME280_humidity;BME280_pressure;Samples;Min_cycle;Max_cycle;Signal;HPM_P1;HPM_P2
2020/12/27 00:02:04;;;;;;;31.45;10.88;;;;;;;;;;4824548;29;20040;-73
2020/12/27 00:04:30;;;;;;;35.30;12.30;;;;;;;;;;4807755;29;20373;-76
2020/12/27 00:06:57;;;;;;;33.42;10.85;;;;;;;;;;4824509;29;20031;-77
2020/12/27 00:09:23;;;;;;;33.15;12.27;;;;;;;;;;4824528;29;20038;-77
2020/12/27 00:11:52;;;;;;;29.85;11.40;;;;;;;;;;4824650;29;20026;-76
2020/12/27 00:14:18;;;;;;;37.05;12.13;;;;;;;;;;4807727;29;20133;-76
2020/12/27 00:16:44;;;;;;;48.83;11.18;;;;;;;;;;4824371;29;20091;-65
2020/12/27 00:19:11;;;;;;;21.60;9.75;;;;;;;;;;4824312;29;20038;-78
2020/12/27 00:21:37;;;;;;;39.67;13.10;;;;;;;;;;4824543;29;20438;-71
2020/12/27 00:24:03;;;;;;;40.05;13.05;;;;;;;;;;4824034;29;20030;-65
2020/12/27 00:26:29;;;;;;;42.45;12.65;;;;;;;;;;4807724;29;20453;-68
2020/12/27 00:28:55;;;;;;;45.05;13.85;;;;;;;;;;4824068;29;20069;-76
2020/12/27 00:31:22;;;;;;;36.22;13.80;;;;;;;;;;4807684;29;20026;-78
2020/12/27 00:33:48;;;;;;;46.58;14.75;;;;;;;;;;4807463;29;20046;-65
2020/12/27 00:36:18;;;;;;;35.17;12.57;;;;;;;;;;4807647;29;20418;-79
2020/12/27 00:38:44;;;;;;;30.13;10.90;;;;;;;;;;4807608;29;20030;-79
2020/12/27 00:41:10;;;;;;;37.08;10.60;;;;;;;;;;4823900;29;20055;-66
2020/12/27 00:43:37;;;;;;;24.40;9.95;;;;;;;;;;4824033;29;20170;-79
2020/12/27 00:46:03;;;;;;;35.53;9.75;;;;;;;;;;4824285;29;20027;-66
2020/12/27 00:48:29;;;;;;;27.67;9.77;;;;;;;;;;4807385;29;20485;-77
2020/12/27 00:50:55;;;;;;;33.40;11.02;;;;;;;;;;4823740;29;20060;-78
2020/12/27 00:53:21;;;;;;;22.48;7.60;;;;;;;;;;4823596;29;20039;-76
2020/12/27 00:55:47;;;;;;;21.05;8.25;;;;;;;;;;4823863;29;20042;-67
2020/12/27 00:58:14;;;;;;;7.88;3.63;;;;;;;;;;4807353;29;20030;-76
2020/12/27 01:00:40;;;;;;;12.45;4.50;;;;;;;;;;4823722;29;20069;-75
2020/12/27 01:03:06;;;;;;;12.57;5.03;;;;;;;;;;4807597;29;20589;-76
2020/12/27 01:05:32;;;;;;;13.90;5.15;;;;;;;;;;4807125;29;20030;-77
2020/12/27 01:07:58;;;;;;;21.90;6.57;;;;;;;;;;4823752;29;20034;-65
2020/12/27 01:10:24;;;;;;;13.60;6.00;;;;;;;;;;4807265;29;20542;-77
2020/12/27 01:12:50;;;;;;;11.15;5.38;;;;;;;;;;4807366;29;20052;-78
2020/12/27 01:15:16;;;;;;;12.57;5.38;;;;;;;;;;4823570;29;20072;-77
2020/12/27 01:17:42;;;;;;;16.38;5.40;;;;;;;;;;4823832;29;20477;-67
2020/12/27 01:20:08;;;;;;;17.08;6.70;;;;;;;;;;4823496;29;20058;-77
2020/12/27 01:22:35;;;;;;;14.60;5.18;;;;;;;;;;4823615;29;20103;-76
2020/12/27 01:25:01;;;;;;;14.02;5.60;;;;;;;;;;4807087;29;20400;-77
2020/12/27 01:27:27;;;;;;;15.35;6.10;;;;;;;;;;4823565;29;20066;-74
2020/12/27 01:29:53;;;;;;;17.92;4.60;;;;;;;;;;4792192;29;20113;-76
2020/12/27 01:32:19;;;;;;;11.00;4.72;;;;;;;;;;4823552;29;20031;-77
2020/12/27 01:34:45;;;;;;;8.27;3.90;;;;;;;;;;4807129;29;20489;-77
2020/12/27 01:37:11;;;;;;;7.95;3.65;;;;;;;;;;4807165;29;20087;-78
2020/12/27 01:39:37;;;;;;;9.60;4.45;;;;;;;;;;4807173;29;20038;-77
2020/12/27 01:42:03;;;;;;;9.13;3.65;;;;;;;;;;4822837;29;20121;-77
2020/12/27 01:44:29;;;;;;;9.10;4.03;;;;;;;;;;4806785;29;20401;-80
2020/12/27 01:46:55;;;;;;;7.10;2.95;;;;;;;;;;4809828;29;20097;-79
2020/12/27 01:49:22;;;;;;;9.55;4.15;;;;;;;;;;4826304;29;20042;-78
2020/12/27 01:51:48;;;;;;;13.10;4.80;;;;;;;;;;4826248;29;20097;-79
2020/12/27 01:54:14;;;;;;;15.95;4.68;;;;;;;;;;4826330;29;20074;-78
2020/12/27 01:56:41;;;;;;;13.68;4.60;;;;;;;;;;4826561;29;20091;-66
2020/12/27 01:59:15;;;;;;;9.48;3.95;;;;;;;;;;4826193;29;20038;-68
2020/12/27 02:01:41;;;;;;;10.88;3.63;;;;;;;;;;4795007;29;20026;-68
2020/12/27 02:04:08;;;;;;;10.65;4.40;;;;;;;;;;4826270;29;20484;-76
2020/12/27 02:06:34;;;;;;;10.25;4.47;;;;;;;;;;4809928;29;20098;-77
2020/12/27 02:09:01;;;;;;;14.60;5.50;;;;;;;;;;4809885;29;20370;-78
2020/12/27 02:11:27;;;;;;;12.52;5.15;;;;;;;;;;4826096;29;20499;-79
2020/12/27 02:13:56;;;;;;;12.80;4.65;;;;;;;;;;4809614;29;20090;-74
2020/12/27 02:16:23;;;;;;;8.52;3.28;;;;;;;;;;4809942;29;20038;-79
2020/12/27 02:18:53;;;;;;;8.95;4.03;;;;;;;;;;4809766;29;20041;-79
2020/12/27 02:21:19;;;;;;;6.63;3.50;;;;;;;;;;4826081;29;20481;-78
2020/12/27 02:23:46;;;;;;;12.25;3.70;;;;;;;;;;4809655;29;20491;-78
2020/12/27 02:26:12;;;;;;;9.98;3.15;;;;;;;;;;4809360;29;20046;-78
2020/12/27 02:28:39;;;;;;;8.82;3.65;;;;;;;;;;4825965;29;20041;-75
2020/12/27 02:31:05;;;;;;;10.57;4.10;;;;;;;;;;4825962;29;20046;-62
2020/12/27 02:33:32;;;;;;;7.00;2.92;;;;;;;;;;4825775;29;20109;-77
2020/12/27 02:35:58;;;;;;;12.88;2.70;;;;;;;;;;4809368;29;20066;-76
2020/12/27 02:38:24;;;;;;;4.60;2.70;;;;;;;;;;4825670;29;20037;-76
2020/12/27 02:40:50;;;;;;;7.20;3.20;;;;;;;;;;4809360;29;20034;-77
2020/12/27 02:43:17;;;;;;;8.48;3.53;;;;;;;;;;4825692;29;20238;-78
2020/12/27 02:45:45;;;;;;;6.90;3.60;;;;;;;;;;4809039;29;20030;-77
2020/12/27 02:48:11;;;;;;;8.85;4.40;;;;;;;;;;4809212;29;20446;-77
2020/12/27 02:50:37;;;;;;;6.45;3.40;;;;;;;;;;4806061;29;20055;-67
2020/12/27 02:53:04;;;;;;;8.00;4.28;;;;;;;;;;4806214;29;20095;-77
2020/12/27 02:55:33;;;;;;;8.40;3.47;;;;;;;;;;4807472;29;20042;-76
2020/12/27 02:58:00;;;;;;;8.27;3.63;;;;;;;;;;4806466;29;20034;-77
2020/12/27 03:00:29;;;;;;;21.38;6.15;;;;;;;;;;4807127;29;20035;-77
2020/12/27 03:02:56;;;;;;;30.83;7.85;;;;;;;;;;4806036;29;20034;-77
2020/12/27 03:05:22;;;;;;;23.70;7.80;;;;;;;;;;4805905;29;20397;-76
2020/12/27 03:07:49;;;;;;;20.05;6.28;;;;;;;;;;4806853;29;20064;-66
2020/12/27 03:10:16;;;;;;;24.98;7.70;;;;;;;;;;4805807;29;20034;-76
2020/12/27 03:12:43;;;;;;;18.83;6.07;;;;;;;;;;4807315;29;20103;-76
2020/12/27 03:15:10;;;;;;;19.55;5.70;;;;;;;;;;4807179;29;20516;-78
2020/12/27 03:17:37;;;;;;;21.98;6.45;;;;;;;;;;4807047;29;20114;-77
2020/12/27 03:20:04;;;;;;;20.08;5.80;;;;;;;;;;4806744;29;20031;-78
2020/12/27 03:22:30;;;;;;;22.35;7.40;;;;;;;;;;4806894;29;20031;-68
2020/12/27 03:24:56;;;;;;;15.95;5.78;;;;;;;;;;4807040;29;20035;-79
2020/12/27 03:27:22;;;;;;;14.52;6.28;;;;;;;;;;4806858;29;20035;-78
2020/12/27 03:29:49;;;;;;;19.17;6.60;;;;;;;;;;4806808;29;20061;-80
2020/12/27 03:32:15;;;;;;;27.25;6.78;;;;;;;;;;4806768;29;20031;-80
2020/12/27 03:34:41;;;;;;;24.90;6.05;;;;;;;;;;4806733;29;20042;-81
2020/12/27 03:37:07;;;;;;;13.13;5.05;;;;;;;;;;4805397;29;20129;-69
2020/12/27 03:39:33;;;;;;;14.90;4.22;;;;;;;;;;4806516;29;20051;-81
2020/12/27 03:42:00;;;;;;;9.18;4.18;;;;;;;;;;4806638;29;20495;-78
2020/12/27 03:44:26;;;;;;;9.18;3.80;;;;;;;;;;4806603;29;20031;-77
2020/12/27 03:46:53;;;;;;;6.32;3.38;;;;;;;;;;4806690;29;20453;-79
2020/12/27 03:49:19;;;;;;;15.82;4.35;;;;;;;;;;4806264;29;20043;-76
2020/12/27 03:51:45;;;;;;;10.77;4.05;;;;;;;;;;4804980;29;20054;-77
2020/12/27 03:54:11;;;;;;;7.05;3.65;;;;;;;;;;4806344;29;20046;-77
2020/12/27 03:56:38;;;;;;;14.68;4.82;;;;;;;;;;4806453;29;20030;-66
2020/12/27 03:59:04;;;;;;;9.18;4.05;;;;;;;;;;4806201;29;20070;-78
2020/12/27 04:01:31;;;;;;;7.95;3.90;;;;;;;;;;4806207;29;20114;-78
2020/12/27 04:03:57;;;;;;;9.98;4.47;;;;;;;;;;4804927;29;20045;-79
2020/12/27 04:06:24;;;;;;;8.75;3.88;;;;;;;;;;4806228;29;20031;-78
2020/12/27 04:08:50;;;;;;;7.03;4.18;;;;;;;;;;4806016;29;20166;-77
2020/12/27 04:11:16;;;;;;;6.53;2.88;;;;;;;;;;4805774;29;20477;-79
2020/12/27 04:13:42;;;;;;;5.63;2.65;;;;;;;;;;4804938;29;20039;-81
2020/12/27 04:16:09;;;;;;;9.15;2.88;;;;;;;;;;4806058;29;20038;-77
2020/12/27 04:18:35;;;;;;;10.93;3.40;;;;;;;;;;4805794;29;20045;-78
2020/12/27 04:21:01;;;;;;;7.60;3.50;;;;;;;;;;4804594;29;20039;-78
2020/12/27 04:23:27;;;;;;;4.70;2.45;;;;;;;;;;4805521;29;20042;-76
2020/12/27 04:25:53;;;;;;;6.15;2.15;;;;;;;;;;4806313;29;20388;-77
2020/12/27 04:28:19;;;;;;;11.98;3.00;;;;;;;;;;4804505;29;20027;-76
2020/12/27 04:30:46;;;;;;;6.95;3.20;;;;;;;;;;4806088;29;20070;-77
2020/12/27 04:33:12;;;;;;;10.30;3.63;;;;;;;;;;4805804;29;20039;-76
2020/12/27 04:35:39;;;;;;;8.40;3.90;;;;;;;;;;4805696;29;20439;-77
2020/12/27 04:38:05;;;;;;;8.07;3.38;;;;;;;;;;4805723;29;20084;-69
2020/12/27 04:40:31;;;;;;;6.63;3.15;;;;;;;;;;4805818;29;20389;-80
2020/12/27 04:42:57;;;;;;;8.70;3.78;;;;;;;;;;4804603;29;20245;-78
2020/12/27 04:45:24;;;;;;;7.05;3.42;;;;;;;;;;4804639;29;20035;-79
2020/12/27 04:47:50;;;;;;;13.57;4.25;;;;;;;;;;4804554;29;20033;-79
2020/12/27 04:50:17;;;;;;;14.38;5.38;;;;;;;;;;4811678;29;20058;-78
2020/12/27 04:52:43;;;;;;;29.77;7.13;;;;;;;;;;4824059;29;20044;-79
2020/12/27 04:55:09;;;;;;;19.02;7.47;;;;;;;;;;4807378;29;20038;-67
2020/12/27 04:57:38;;;;;;;16.30;5.45;;;;;;;;;;4824115;29;20438;-79
2020/12/27 05:00:07;;;;;;;18.25;6.25;;;;;;;;;;4792632;29;20034;-77
2020/12/27 05:02:33;;;;;;;16.00;3.70;;;;;;;;;;4807411;29;20031;-67
2020/12/27 05:05:02;;;;;;;11.48;2.83;;;;;;;;;;4807229;29;20121;-68
2020/12/27 05:07:28;;;;;;;5.82;3.40;;;;;;;;;;4807348;29;20033;-71
2020/12/27 05:09:55;;;;;;;9.50;3.88;;;;;;;;;;4807536;29;20037;-78
2020/12/27 05:12:21;;;;;;;7.63;3.97;;;;;;;;;;4807383;29;20030;-81
2020/12/27 05:14:47;;;;;;;9.25;3.40;;;;;;;;;;4823617;29;20074;-69
2020/12/27 05:17:15;;;;;;;7.95;4.10;;;;;;;;;;4807297;29;20034;-79
2020/12/27 05:19:42;;;;;;;8.98;3.63;;;;;;;;;;4807269;29;20042;-67
2020/12/27 05:22:09;;;;;;;10.43;4.10;;;;;;;;;;4810388;29;20026;-66
2020/12/27 05:24:36;;;;;;;8.95;3.25;;;;;;;;;;4826900;29;20034;-74
2020/12/27 05:27:04;;;;;;;11.00;4.60;;;;;;;;;;4810443;29;20396;-75
2020/12/27 05:29:31;;;;;;;10.00;4.07;;;;;;;;;;4810483;29;20036;-78
2020/12/27 05:31:58;;;;;;;11.00;4.10;;;;;;;;;;4811598;29;20454;-73
2020/12/27 05:34:26;;;;;;;11.73;5.60;;;;;;;;;;4810331;29;20039;-78
2020/12/27 05:36:52;;;;;;;21.55;6.75;;;;;;;;;;4810332;29;20030;-78
2020/12/27 05:39:19;;;;;;;19.13;6.57;;;;;;;;;;4826687;29;20057;-67
2020/12/27 05:41:45;;;;;;;9.50;4.60;;;;;;;;;;4826608;29;20117;-78
2020/12/27 05:44:12;;;;;;;18.65;6.20;;;;;;;;;;4810519;29;20034;-81
2020/12/27 05:46:38;;;;;;;12.98;4.80;;;;;;;;;;4826633;29;20083;-65
2020/12/27 05:49:04;;;;;;;12.15;4.53;;;;;;;;;;4826477;29;20401;-79
2020/12/27 05:51:34;;;;;;;14.85;6.30;;;;;;;;;;4826055;29;20086;-80
2020/12/27 05:54:03;;;;;;;12.73;4.32;;;;;;;;;;4826355;29;20071;-79
2020/12/27 05:56:31;;;;;;;15.95;6.90;;;;;;;;;;4809976;29;20473;-76
2020/12/27 05:58:58;;;;;;;20.30;5.47;;;;;;;;;;4810170;29;20038;-75
2020/12/27 06:01:25;;;;;;;19.05;5.90;;;;;;;;;;4810075;29;20027;-79
2020/12/27 06:04:01;;;;;;;15.02;5.30;;;;;;;;;;4809922;29;20098;-66
2020/12/27 06:06:54;;;;;;;10.10;4.88;;;;;;;;;;4809923;29;20034;-76
2020/12/27 06:09:40;;;;;;;8.77;3.75;;;;;;;;;;4811475;29;20508;-78
2020/12/27 06:12:09;;;;;;;10.52;4.45;;;;;;;;;;4825135;29;20034;-78
2020/12/27 06:14:36;;;;;;;16.25;3.63;;;;;;;;;;4809792;29;20042;-80
2020/12/27 06:17:13;;;;;;;11.30;4.93;;;;;;;;;;4794872;29;20092;-79
2020/12/27 06:19:40;;;;;;;13.27;4.28;;;;;;;;;;4809690;29;20037;-80
2020/12/27 06:22:07;;;;;;;13.95;4.93;;;;;;;;;;4809486;29;20469;-79
2020/12/27 06:24:35;;;;;;;12.20;3.47;;;;;;;;;;4809765;29;20041;-80
2020/12/27 06:27:01;;;;;;;9.43;3.90;;;;;;;;;;4825829;29;20038;-81
2020/12/27 06:29:48;;;;;;;14.52;4.80;;;;;;;;;;4826089;29;20034;-74
2020/12/27 06:32:16;;;;;;;12.18;4.10;;;;;;;;;;4819104;29;20042;-78
2020/12/27 06:34:43;;;;;;;11.75;4.68;;;;;;;;;;4825658;29;20046;-78
2020/12/27 06:37:09;;;;;;;12.25;4.25;;;;;;;;;;4825960;29;20033;-78
2020/12/27 06:39:36;;;;;;;10.73;4.45;;;;;;;;;;4825741;29;20074;-78
2020/12/27 06:42:16;;;;;;;14.18;4.78;;;;;;;;;;4809057;29;20026;-79
2020/12/27 06:44:45;;;;;;;6.78;2.83;;;;;;;;;;4809278;29;20030;-74
2020/12/27 06:47:12;;;;;;;11.45;4.70;;;;;;;;;;4809219;29;20026;-80
2020/12/27 06:49:38;;;;;;;12.05;4.25;;;;;;;;;;4808584;29;20693;-77
2020/12/27 06:52:21;;;;;;;10.02;4.85;;;;;;;;;;4808855;29;20034;-64
2020/12/27 06:54:51;;;;;;;10.68;4.53;;;;;;;;;;4825606;29;20082;-77
2020/12/27 06:57:36;;;;;;;14.25;5.55;;;;;;;;;;4809105;29;20038;-79
2020/12/27 07:00:20;;;;;;;16.52;5.20;;;;;;;;;;4825458;29;20075;-79
2020/12/27 07:02:47;;;;;;;14.63;6.38;;;;;;;;;;4809082;29;20118;-80
2020/12/27 07:05:29;;;;;;;9.20;4.40;;;;;;;;;;4825281;29;20042;-82
2020/12/27 07:07:55;;;;;;;18.65;5.40;;;;;;;;;;4809031;29;20053;-77
2020/12/27 07:10:22;;;;;;;16.40;5.63;;;;;;;;;;4808975;29;20026;-79
2020/12/27 07:12:48;;;;;;;15.80;5.85;;;;;;;;;;4825240;29;20031;-75
2020/12/27 07:15:15;;;;;;;15.98;6.07;;;;;;;;;;4825250;29;20049;-80
2020/12/27 07:17:42;;;;;;;16.38;5.90;;;;;;;;;;4824913;29;20118;-65
2020/12/27 07:20:15;;;;;;;12.27;5.80;;;;;;;;;;4808673;29;20070;-76
2020/12/27 07:22:44;;;;;;;11.57;5.73;;;;;;;;;;4808870;29;20052;-78
2020/12/27 07:25:16;;;;;;;11.80;6.20;;;;;;;;;;4808612;29;20400;-71
2020/12/27 07:27:43;;;;;;;13.95;6.07;;;;;;;;;;4793546;29;20041;-78
2020/12/27 07:30:10;;;;;;;14.65;6.05;;;;;;;;;;4808603;29;20091;-82
2020/12/27 07:32:48;;;;;;;16.38;6.43;;;;;;;;;;4808756;29;20066;-80
2020/12/27 07:35:15;;;;;;;13.95;6.22;;;;;;;;;;4808381;29;20074;-67
2020/12/27 07:37:44;;;;;;;22.75;7.68;;;;;;;;;;4808270;29;20036;-79
2020/12/27 07:40:11;;;;;;;21.77;8.93;;;;;;;;;;4793242;29;20030;-78
2020/12/27 07:42:38;;;;;;;28.48;9.30;;;;;;;;;;4807465;29;20400;-79
2020/12/27 07:45:06;;;;;;;20.20;8.43;;;;;;;;;;4807598;29;20037;-75
2020/12/27 07:47:40;;;;;;;24.20;9.23;;;;;;;;;;4824484;29;20037;-77
2020/12/27 07:50:13;;;;;;;19.98;7.75;;;;;;;;;;4806942;29;20618;-65
2020/12/27 07:52:51;;;;;;;18.63;7.55;;;;;;;;;;4807934;29;20061;-80
2020/12/27 07:55:25;;;;;;;12.77;6.40;;;;;;;;;;4808244;29;20042;-68
2020/12/27 07:57:51;;;;;;;;;;;;;;;;;;4808480;29;20126;-79
2020/12/27 08:00:21;;;;;;;12.18;6.05;;;;;;;;;;4824513;29;19924;-64
2020/12/27 08:02:47;;;;;;;15.75;6.65;;;;;;;;;;4807747;29;20548;-78
2020/12/27 08:05:13;;;;;;;14.70;6.65;;;;;;;;;;4807311;29;20035;-64
2020/12/27 08:07:40;;;;;;;21.25;7.50;;;;;;;;;;4808083;29;20030;-76
2020/12/27 08:10:32;;;;;;;14.48;6.80;;;;;;;;;;4824416;29;20473;-79
2020/12/27 08:13:00;;;;;;;15.73;6.32;;;;;;;;;;4805142;29;20039;-78
2020/12/27 08:15:27;;;;;;;19.85;7.60;;;;;;;;;;4807125;29;20416;-73
2020/12/27 08:18:06;;;;;;;14.80;7.00;;;;;;;;;;4807554;29;20053;-68
2020/12/27 08:20:43;;;;;;;14.70;6.93;;;;;;;;;;4807533;29;20038;-64
2020/12/27 08:23:09;;;;;;;13.55;7.03;;;;;;;;;;4807288;29;20031;-73
2020/12/27 08:25:36;;;;;;;17.35;7.13;;;;;;;;;;4807146;29;20042;-74
2020/12/27 08:28:04;;;;;;;18.08;7.25;;;;;;;;;;4807194;29;20038;-79
2020/12/27 08:30:31;;;;;;;13.98;7.43;;;;;;;;;;4807136;29;20030;-71
2020/12/27 08:33:07;;;;;;;19.15;8.48;;;;;;;;;;4806881;29;20512;-65
2020/12/27 08:35:34;;;;;;;15.52;7.20;;;;;;;;;;4806671;29;20518;-81
2020/12/27 08:38:18;;;;;;;12.90;6.35;;;;;;;;;;4807791;29;20113;-88
2020/12/27 08:40:52;;;;;;;16.48;7.13;;;;;;;;;;4824089;29;20034;-64
2020/12/27 08:43:37;;;;;;;14.52;6.18;;;;;;;;;;4807305;29;20451;-76
2020/12/27 08:46:04;;;;;;;12.40;6.30;;;;;;;;;;4807285;29;20394;-78
2020/12/27 08:48:35;;;;;;;13.13;6.65;;;;;;;;;;4807442;29;20033;-78
2020/12/27 08:51:02;;;;;;;16.02;6.30;;;;;;;;;;4823087;29;20079;-82
2020/12/27 08:53:28;;;;;;;15.88;6.32;;;;;;;;;;4807415;29;20108;-70
2020/12/27 08:55:58;;;;;;;16.35;6.90;;;;;;;;;;4825578;29;20481;-81
2020/12/27 08:58:24;;;;;;;12.95;6.53;;;;;;;;;;4811189;29;20037;-82
2020/12/27 09:00:50;;;;;;;13.70;6.32;;;;;;;;;;4827335;29;20104;-80
2020/12/27 09:03:17;;;;;;;15.88;7.30;;;;;;;;;;4811027;29;20030;-81
2020/12/27 09:05:43;;;;;;;13.77;5.93;;;;;;;;;;4811025;29;20035;-66
2020/12/27 09:08:18;;;;;;;13.30;6.53;;;;;;;;;;4827073;29;20030;-66
2020/12/27 09:10:45;;;;;;;14.38;6.18;;;;;;;;;;4811036;29;20457;-66
2020/12/27 09:13:13;;;;;;;15.32;7.05;;;;;;;;;;4827335;29;20065;-67
2020/12/27 09:15:43;;;;;;;15.85;7.60;;;;;;;;;;4827557;29;20074;-80
2020/12/27 09:18:14;;;;;;;14.65;5.95;;;;;;;;;;4795856;29;20442;-80
2020/12/27 09:20:41;;;;;;;14.45;6.43;;;;;;;;;;4811508;29;20034;-80
2020/12/27 09:23:17;;;;;;;14.77;6.13;;;;;;;;;;4795671;29;20030;-74
2020/12/27 09:25:44;;;;;;;16.52;6.40;;;;;;;;;;4827392;29;20034;-80
2020/12/27 09:28:20;;;;;;;19.92;7.30;;;;;;;;;;4826910;29;20035;-80
2020/12/27 09:31:03;;;;;;;14.73;6.63;;;;;;;;;;4826665;29;20103;-67
2020/12/27 09:33:30;;;;;;;14.68;5.93;;;;;;;;;;4810578;29;20039;-79
2020/12/27 09:36:00;;;;;;;16.60;6.50;;;;;;;;;;4810466;29;20077;-78
2020/12/27 09:38:27;;;;;;;14.50;5.82;;;;;;;;;;4810668;29;20122;-65
2020/12/27 09:41:04;;;;;;;10.88;5.32;;;;;;;;;;4810307;29;20099;-79
2020/12/27 09:43:30;;;;;;;12.27;5.45;;;;;;;;;;4826891;29;20027;-77
2020/12/27 09:45:57;;;;;;;11.57;5.68;;;;;;;;;;4810507;29;20082;-74
2020/12/27 09:48:31;;;;;;;11.98;5.22;;;;;;;;;;4810404;29;20042;-70
2020/12/27 09:50:57;;;;;;;13.70;5.72;;;;;;;;;;4826543;29;20129;-68
2020/12/27 09:53:23;;;;;;;13.18;6.13;;;;;;;;;;4826572;29;20041;-76
2020/12/27 09:55:49;;;;;;;14.85;6.40;;;;;;;;;;4826427;29;20065;-79
2020/12/27 09:58:15;;;;;;;12.45;6.68;;;;;;;;;;4810290;29;20111;-65
2020/12/27 10:00:41;;;;;;;15.68;5.95;;;;;;;;;;4795347;29;20034;-67
2020/12/27 10:03:07;;;;;;;13.32;5.97;;;;;;;;;;4826415;29;20498;-64
2020/12/27 10:05:33;;;;;;;14.25;6.60;;;;;;;;;;4826149;29;20473;-75
2020/12/27 10:08:00;;;;;;;11.32;4.70;;;;;;;;;;4809999;29;20026;-79
2020/12/27 10:10:26;;;;;;;9.82;4.50;;;;;;;;;;4826172;29;20088;-66
2020/12/27 10:12:52;;;;;;;8.60;4.15;;;;;;;;;;4826448;29;20026;-67
2020/12/27 10:15:19;;;;;;;11.25;4.60;;;;;;;;;;4810073;29;20392;-79
2020/12/27 10:17:45;;;;;;;11.18;4.68;;;;;;;;;;4809177;29;20027;-63
2020/12/27 10:20:11;;;;;;;12.18;5.22;;;;;;;;;;4825795;29;20076;-63
2020/12/27 10:22:37;;;;;;;11.05;4.25;;;;;;;;;;4825142;29;20117;-81
2020/12/27 10:25:05;;;;;;;8.98;4.63;;;;;;;;;;4808878;29;20043;-65
2020/12/27 10:27:32;;;;;;;7.85;3.63;;;;;;;;;;4809682;29;20541;-79
2020/12/27 10:30:00;;;;;;;7.13;3.45;;;;;;;;;;4809709;29;20034;-65
2020/12/27 10:32:26;;;;;;;10.45;4.40;;;;;;;;;;4825778;29;20044;-63
2020/12/27 10:34:52;;;;;;;13.35;5.30;;;;;;;;;;4809531;29;20035;-72
2020/12/27 10:37:18;;;;;;;6.47;2.83;;;;;;;;;;4809084;29;20087;-64
2020/12/27 10:39:44;;;;;;;9.82;3.42;;;;;;;;;;4809016;29;20034;-79
2020/12/27 10:42:10;;;;;;;8.10;3.10;;;;;;;;;;4809373;29;20022;-84
2020/12/27 10:44:37;;;;;;;9.70;4.45;;;;;;;;;;4807730;29;20030;-78
2020/12/27 10:47:03;;;;;;;6.22;3.35;;;;;;;;;;4808761;29;20029;-79
2020/12/27 10:49:29;;;;;;;9.00;3.80;;;;;;;;;;4808263;29;20117;-82
2020/12/27 10:51:55;;;;;;;6.55;2.45;;;;;;;;;;4809203;29;20057;-62
2020/12/27 10:54:21;;;;;;;9.13;3.72;;;;;;;;;;4808669;29;20102;-62
2020/12/27 10:56:48;;;;;;;8.02;3.58;;;;;;;;;;4824560;29;20507;-64
2020/12/27 10:59:15;;;;;;;6.00;3.25;;;;;;;;;;4827281;29;20055;-64
2020/12/27 11:01:49;;;;;;;7.45;3.08;;;;;;;;;;4825385;29;20030;-87
2020/12/27 11:04:16;;;;;;;8.63;3.70;;;;;;;;;;4809837;29;20033;-63
2020/12/27 11:06:42;;;;;;;8.23;2.47;;;;;;;;;;4825579;29;20034;-87
2020/12/27 11:09:09;;;;;;;8.50;3.30;;;;;;;;;;4825454;29;20030;-81
2020/12/27 11:11:35;;;;;;;8.52;3.80;;;;;;;;;;4825452;29;20045;-88
2020/12/27 11:14:02;;;;;;;5.40;2.83;;;;;;;;;;4808791;29;20053;-64
2020/12/27 11:16:28;;;;;;;7.03;2.95;;;;;;;;;;4825295;29;20543;-79
2020/12/27 11:18:54;;;;;;;6.97;3.83;;;;;;;;;;4824409;29;20046;-63
2020/12/27 11:21:21;;;;;;;8.90;3.67;;;;;;;;;;4825122;29;20037;-63
2020/12/27 11:23:47;;;;;;;7.10;3.40;;;;;;;;;;4825439;29;20042;-82
2020/12/27 11:26:17;;;;;;;6.20;2.90;;;;;;;;;;4808702;29;20446;-63
2020/12/27 11:28:43;;;;;;;9.98;4.03;;;;;;;;;;4825298;29;20026;-62
2020/12/27 11:31:10;;;;;;;11.60;4.35;;;;;;;;;;4824873;29;20039;-88
2020/12/27 11:33:37;;;;;;;8.93;3.67;;;;;;;;;;4825114;29;20037;-85
2020/12/27 11:36:03;;;;;;;11.00;3.92;;;;;;;;;;4824766;29;20505;-63
2020/12/27 11:38:29;;;;;;;7.18;3.00;;;;;;;;;;4825056;29;20039;-72
2020/12/27 11:40:55;;;;;;;7.22;3.13;;;;;;;;;;4827843;29;20074;-63
2020/12/27 11:43:21;;;;;;;9.65;3.60;;;;;;;;;;4826480;29;20390;-71
2020/12/27 11:45:48;;;;;;;7.78;3.83;;;;;;;;;;4826106;29;20031;-86
2020/12/27 11:48:14;;;;;;;8.68;3.17;;;;;;;;;;4824722;29;20106;-67
2020/12/27 11:50:40;;;;;;;8.13;3.63;;;;;;;;;;4824271;29;20496;-88
2020/12/27 11:53:06;;;;;;;4.75;2.38;;;;;;;;;;4807669;29;20038;-63
2020/12/27 11:55:32;;;;;;;7.35;3.30;;;;;;;;;;4824023;29;20046;-84
2020/12/27 11:57:59;;;;;;;8.15;4.07;;;;;;;;;;4824194;29;20113;-63
2020/12/27 12:00:25;;;;;;;9.90;3.65;;;;;;;;;;4824452;29;20069;-81
2020/12/27 12:02:51;;;;;;;9.38;3.83;;;;;;;;;;4823864;29;20165;-65
2020/12/27 12:05:17;;;;;;;5.65;2.35;;;;;;;;;;4824119;29;20107;-62
2020/12/27 12:07:43;;;;;;;6.47;2.97;;;;;;;;;;4824199;29;20430;-62
2020/12/27 12:10:09;;;;;;;6.63;2.50;;;;;;;;;;4823698;29;20520;-64
2020/12/27 12:12:35;;;;;;;8.32;3.20;;;;;;;;;;4823928;29;20473;-62
2020/12/27 12:15:01;;;;;;;8.13;3.40;;;;;;;;;;4823909;29;20090;-64
2020/12/27 12:17:27;;;;;;;5.35;2.80;;;;;;;;;;4807589;29;20042;-63
2020/12/27 12:19:53;;;;;;;5.85;2.45;;;;;;;;;;4807829;29;20034;-63
2020/12/27 12:22:19;;;;;;;10.30;3.72;;;;;;;;;;4807413;29;20072;-62
2020/12/27 12:24:45;;;;;;;7.68;3.25;;;;;;;;;;4807495;29;20396;-63
2020/12/27 12:27:12;;;;;;;9.45;4.63;;;;;;;;;;4806072;29;20159;-65
2020/12/27 12:29:38;;;;;;;8.85;3.95;;;;;;;;;;4822718;29;20086;-71
2020/12/27 12:32:04;;;;;;;7.10;3.22;;;;;;;;;;4792152;29;20026;-80
2020/12/27 12:34:30;;;;;;;7.38;3.83;;;;;;;;;;4823844;29;20034;-72
2020/12/27 12:36:56;;;;;;;9.02;3.83;;;;;;;;;;4807495;29;20509;-63
2020/12/27 12:39:23;;;;;;;6.85;3.50;;;;;;;;;;4823987;29;20031;-79
2020/12/27 12:41:49;;;;;;;9.95;3.25;;;;;;;;;;4807557;29;20030;-63
2020/12/27 12:44:15;;;;;;;5.90;3.17;;;;;;;;;;4807463;29;20496;-63
2020/12/27 12:46:41;;;;;;;12.50;4.07;;;;;;;;;;4807247;29;20034;-81
2020/12/27 12:49:07;;;;;;;5.38;2.25;;;;;;;;;;4806810;29;20040;-62
2020/12/27 12:51:33;;;;;;;8.82;3.25;;;;;;;;;;4823049;29;20162;-66
2020/12/27 12:53:59;;;;;;;8.73;2.60;;;;;;;;;;4806849;29;20042;-75
2020/12/27 12:56:25;;;;;;;6.22;2.50;;;;;;;;;;4807394;29;20073;-64
2020/12/27 12:58:51;;;;;;;7.05;2.47;;;;;;;;;;4807332;29;20030;-63
2020/12/27 13:01:17;;;;;;;7.55;3.17;;;;;;;;;;4807177;29;20045;-62
2020/12/27 13:03:43;;;;;;;5.25;2.33;;;;;;;;;;4807277;29;20030;-77
2020/12/27 13:06:11;;;;;;;4.90;2.00;;;;;;;;;;4807205;29;20484;-63
2020/12/27 13:08:37;;;;;;;4.95;1.88;;;;;;;;;;4823926;29;20027;-62
2020/12/27 13:11:03;;;;;;;5.65;2.42;;;;;;;;;;4823635;29;20038;-63
2020/12/27 13:13:29;;;;;;;5.95;2.53;;;;;;;;;;4822909;29;20030;-63
2020/12/27 13:15:55;;;;;;;4.90;2.00;;;;;;;;;;4816255;29;20043;-61
2020/12/27 13:18:23;;;;;;;4.78;1.92;;;;;;;;;;4805457;29;20508;-62
2020/12/27 13:20:49;;;;;;;5.10;2.53;;;;;;;;;;4805534;29;20498;-62
2020/12/27 13:23:15;;;;;;;7.13;2.17;;;;;;;;;;4805320;29;20420;-62
2020/12/27 13:25:41;;;;;;;6.07;2.22;;;;;;;;;;4805441;29;20034;-62
2020/12/27 13:28:07;;;;;;;10.07;3.38;;;;;;;;;;4805366;29;20041;-62
2020/12/27 13:30:33;;;;;;;7.43;2.38;;;;;;;;;;4805571;29;20431;-62
2020/12/27 13:32:59;;;;;;;4.80;2.40;;;;;;;;;;4804310;29;20035;-63
2020/12/27 13:35:25;;;;;;;8.73;3.85;;;;;;;;;;4805270;29;20077;-63
2020/12/27 13:37:51;;;;;;;11.32;3.35;;;;;;;;;;4805170;29;20031;-62
2020/12/27 13:40:17;;;;;;;14.57;3.75;;;;;;;;;;4805116;29;20050;-62
2020/12/27 13:42:43;;;;;;;12.20;4.05;;;;;;;;;;4807858;29;20542;-62
2020/12/27 13:45:10;;;;;;;6.93;3.25;;;;;;;;;;4808396;29;20397;-78
2020/12/27 13:47:37;;;;;;;9.48;4.22;;;;;;;;;;4807357;29;20026;-79
2020/12/27 13:50:05;;;;;;;11.65;3.97;;;;;;;;;;4806818;29;20183;-64
2020/12/27 13:52:35;;;;;;;8.60;3.30;;;;;;;;;;4810383;29;20027;-66
2020/12/27 13:55:01;;;;;;;11.85;4.85;;;;;;;;;;4825599;29;20545;-73
2020/12/27 13:57:31;;;;;;;6.80;3.17;;;;;;;;;;4825775;29;20039;-64
2020/12/27 13:59:58;;;;;;;11.90;4.32;;;;;;;;;;4823546;29;20079;-61
2020/12/27 14:02:24;;;;;;;10.45;4.00;;;;;;;;;;4826085;29;20105;-63
2020/12/27 14:04:50;;;;;;;8.95;3.83;;;;;;;;;;4825888;29;21395;-78
2020/12/27 14:07:17;;;;;;;9.13;3.63;;;;;;;;;;4826129;29;20026;-74
2020/12/27 14:09:43;;;;;;;10.40;3.75;;;;;;;;;;4825865;29;20398;-72
2020/12/27 14:12:09;;;;;;;10.52;3.97;;;;;;;;;;4825566;29;20430;-64
2020/12/27 14:14:35;;;;;;;7.85;3.92;;;;;;;;;;4826216;29;20038;-69
2020/12/27 14:17:01;;;;;;;16.23;4.60;;;;;;;;;;4825991;29;20067;-68
2020/12/27 14:19:27;;;;;;;7.53;3.88;;;;;;;;;;4825909;29;20071;-64
2020/12/27 14:21:54;;;;;;;13.77;5.53;;;;;;;;;;4825172;29;20034;-65
2020/12/27 14:24:20;;;;;;;7.65;3.75;;;;;;;;;;4825185;29;20038;-65
2020/12/27 14:26:46;;;;;;;8.40;4.18;;;;;;;;;;4825617;29;20042;-64
2020/12/27 14:29:12;;;;;;;12.30;4.88;;;;;;;;;;4825795;29;20500;-72
2020/12/27 14:31:39;;;;;;;11.70;5.05;;;;;;;;;;4809586;29;20040;-67
2020/12/27 14:34:05;;;;;;;9.10;4.05;;;;;;;;;;4825508;29;20046;-69
2020/12/27 14:36:31;;;;;;;10.38;4.80;;;;;;;;;;4825434;29;20079;-65
2020/12/27 14:38:57;;;;;;;9.23;4.25;;;;;;;;;;4825234;29;20129;-67